Time;durP1;ratioP1;P1;durP2;ratioP2;P2;SDS_P1;SDS_P2;PMS_P1;PMS_P2;Temp;Humidity;BMP_temperature;BMP_pressure;BME280_temperature;BME280_humidity;BME280_pressure;Samples;Min_cycle;Max_cycle;Signal;HPM_P1;HPM_P2
2023/10/07 00:02:12;;;;;;;19.75;6.05;;;;;;;13.92;100.00;102034.47;5047037;28;20123;-72
2023/10/07 00:04:39;;;;;;;18.10;5.10;;;;;;;13.92;100.00;102039.03;5061083;28;20072;-73
2023/10/07 00:07:10;;;;;;;19.98;5.55;;;;;;;13.89;100.00;102029.28;5062711;28;20565;-72
2023/10/07 00:09:35;;;;;;;21.25;6.28;;;;;;;13.89;100.00;102010.38;5052734;28;20082;-73
2023/10/07 00:12:02;;;;;;;18.92;5.75;;;;;;;13.90;100.00;102008.56;5057402;28;20064;-72
2023/10/07 00:14:30;;;;;;;15.80;5.63;;;;;;;13.91;100.00;102003.03;5065036;28;20115;-73
2023/10/07 00:16:57;;;;;;;18.23;5.97;;;;;;;13.91;100.00;101996.75;5060020;28;20075;-72
2023/10/07 00:19:23;;;;;;;16.52;5.28;;;;;;;13.89;100.00;102006.81;5059980;28;20115;-72
2023/10/07 00:22:00;;;;;;;17.00;5.88;;;;;;;13.83;100.00;102008.09;5047818;28;20108;-73
2023/10/07 00:24:34;;;;;;;19.02;5.25;;;;;;;13.83;100.00;102013.50;5051718;28;20353;-72
2023/10/07 00:27:00;;;;;;;18.63;5.57;;;;;;;13.80;100.00;102013.72;5062272;28;20121;-72
2023/10/07 00:29:25;;;;;;;17.02;5.63;;;;;;;13.81;100.00;102005.50;5062488;28;20460;-73
2023/10/07 00:31:54;;;;;;;19.90;5.82;;;;;;;13.80;100.00;102003.75;5053284;28;20063;-72
2023/10/07 00:34:27;;;;;;;25.27;5.97;;;;;;;13.77;100.00;102003.97;5054060;28;20033;-73
2023/10/07 00:36:57;;;;;;;21.15;6.70;;;;;;;13.80;100.00;102008.31;5055450;28;20025;-73
2023/10/07 00:39:23;;;;;;;20.83;6.22;;;;;;;13.78;100.00;102004.88;5057002;28;20028;-72
2023/10/07 00:41:57;;;;;;;18.08;6.72;;;;;;;13.79;100.00;102002.06;5053767;28;20037;-73
2023/10/07 00:44:24;;;;;;;20.38;6.18;;;;;;;13.78;100.00;102004.88;5055156;28;20036;-73
2023/10/07 00:49:40;;;;;;;18.38;6.57;;;;;;;13.79;100.00;102006.56;5063520;28;20093;-72
2023/10/07 00:52:12;;;;;;;22.38;7.50;;;;;;;13.77;100.00;102008.53;5060523;28;20056;-73
2023/10/07 00:54:50;;;;;;;18.00;6.65;;;;;;;13.76;100.00;102014.88;5062259;28;20029;-72
2023/10/07 00:57:53;;;;;;;19.80;6.40;;;;;;;13.77;100.00;102013.94;5060117;28;20063;-72
2023/10/07 01:00:30;;;;;;;21.27;6.70;;;;;;;13.77;100.00;102003.13;5057508;28;20041;-70
2023/10/07 01:03:13;;;;;;;17.52;6.15;;;;;;;13.77;100.00;101998.56;5052580;28;20036;-72
2023/10/07 01:05:44;;;;;;;21.35;7.03;;;;;;;13.75;100.00;101994.28;5051126;28;20029;-72
2023/10/07 01:08:09;;;;;;;19.42;5.82;;;;;;;13.75;100.00;101988.88;5047186;28;20107;-72
2023/10/07 01:10:38;;;;;;;19.02;6.55;;;;;;;13.73;100.00;101979.97;5058757;28;20112;-71
2023/10/07 01:13:23;;;;;;;18.40;6.70;;;;;;;13.71;100.00;101982.78;5059584;28;20024;-72
2023/10/07 01:15:49;;;;;;;18.83;7.15;;;;;;;13.74;100.00;101990.69;5042327;28;20653;-71
2023/10/07 01:18:14;;;;;;;20.17;6.03;;;;;;;13.73;100.00;101993.47;5062429;28;20028;-72
2023/10/07 01:21:05;;;;;;;19.20;7.45;;;;;;;13.71;100.00;101992.75;5062898;28;20475;-72
2023/10/07 01:23:33;;;;;;;19.73;7.03;;;;;;;13.71;100.00;102004.41;5055297;28;20021;-72
2023/10/07 01:26:03;;;;;;;18.85;6.75;;;;;;;13.70;100.00;102004.50;5046883;28;20417;-72
2023/10/07 01:28:32;;;;;;;22.52;7.47;;;;;;;13.68;100.00;102007.31;5050501;28;20043;-72
2023/10/07 01:31:07;;;;;;;24.33;7.40;;;;;;;13.68;100.00;101993.81;5038102;28;20043;-72
2023/10/07 01:33:40;;;;;;;20.08;7.72;;;;;;;13.69;100.00;102005.47;5059166;28;20032;-72
2023/10/07 01:36:24;;;;;;;24.30;8.02;;;;;;;13.69;100.00;102002.75;5052680;28;20177;-72
2023/10/07 01:38:52;;;;;;;24.98;7.63;;;;;;;13.67;100.00;101996.63;5049061;28;20044;-71
2023/10/07 01:41:19;;;;;;;21.30;7.73;;;;;;;13.68;100.00;101992.94;5052238;28;20444;-72
2023/10/07 01:43:56;;;;;;;19.05;7.18;;;;;;;13.64;100.00;101987.72;5052011;28;20032;-72
2023/10/07 01:46:26;;;;;;;20.48;7.53;;;;;;;13.66;100.00;101984.06;5060363;28;20032;-72
2023/10/07 01:48:57;;;;;;;20.23;6.93;;;;;;;13.66;100.00;101995.75;5057828;28;20021;-72
2023/10/07 01:51:29;;;;;;;20.70;7.72;;;;;;;13.66;100.00;101984.06;5037763;28;20105;-72
2023/10/07 01:53:56;;;;;;;21.10;7.97;;;;;;;13.67;100.00;101985.81;5057089;28;20020;-72
2023/10/07 01:56:29;;;;;;;22.70;8.55;;;;;;;13.67;100.00;101975.00;5053887;28;20416;-71
2023/10/07 01:58:57;;;;;;;25.50;8.60;;;;;;;13.68;100.00;101984.84;5054077;28;20032;-72
2023/10/07 02:01:23;;;;;;;24.83;8.52;;;;;;;13.69;100.00;101987.44;5055301;28;20025;-72
2023/10/07 02:03:49;;;;;;;21.77;8.65;;;;;;;13.71;100.00;101982.78;5055083;28;20440;-72
2023/10/07 02:06:18;;;;;;;25.15;9.32;;;;;;;13.73;100.00;101979.97;5059851;28;20029;-70
2023/10/07 02:08:45;;;;;;;18.25;7.70;;;;;;;13.73;100.00;101979.97;5057680;28;20016;-70
2023/10/07 02:11:10;;;;;;;24.23;8.43;;;;;;;13.73;100.00;101985.38;5048589;28;20513;-70
2023/10/07 02:13:36;;;;;;;23.42;9.10;;;;;;;13.75;100.00;101991.56;5037386;28;20029;-70
2023/10/07 02:16:06;;;;;;;21.55;8.85;;;;;;;13.76;100.00;101982.47;5055099;28;20018;-70
2023/10/07 02:18:35;;;;;;;25.42;9.93;;;;;;;13.78;100.00;101972.44;5058871;28;20105;-70
2023/10/07 02:21:07;;;;;;;24.05;9.90;;;;;;;13.80;100.00;101959.66;5061268;28;20119;-70
2023/10/07 02:26:06;;;;;;;25.05;10.00;;;;;;;13.84;100.00;101985.50;5061557;28;20116;-70
2023/10/07 02:28:34;;;;;;;25.02;9.50;;;;;;;13.83;100.00;101982.91;5054181;28;20032;-70
2023/10/07 02:31:15;;;;;;;23.65;11.40;;;;;;;13.86;100.00;101980.00;5058706;28;20029;-70
2023/10/07 02:33:51;;;;;;;24.30;10.07;;;;;;;13.86;100.00;101970.06;5052766;28;20029;-70
2023/10/07 02:36:31;;;;;;;24.65;10.80;;;;;;;13.91;100.00;101978.72;5041459;28;20021;-70
2023/10/07 02:41:47;;;;;;;26.30;11.70;;;;;;;13.93;100.00;101973.19;5045754;28;20105;-70
2023/10/07 02:44:16;;;;;;;31.25;11.55;;;;;;;13.94;100.00;101986.59;5041227;28;20033;-70
2023/10/07 02:46:41;;;;;;;;;;;;;;;13.98;100.00;101980.03;5056297;28;20116;-70
2023/10/07 02:49:10;;;;;;;25.13;12.52;;;;;;;13.98;100.00;101979.13;5056938;28;19924;-70
2023/10/07 02:51:40;;;;;;;24.90;12.05;;;;;;;13.99;100.00;101976.31;5048438;28;20029;-70
2023/10/07 02:54:21;;;;;;;29.30;12.88;;;;;;;14.01;100.00;101978.91;5056648;28;20029;-70
2023/10/07 02:56:55;;;;;;;27.85;14.27;;;;;;;14.05;100.00;101975.03;5049735;28;20111;-71
2023/10/07 03:02:12;;;;;;;31.55;14.13;;;;;;;14.09;100.00;101981.09;5061347;28;20060;-70
2023/10/07 03:04:41;;;;;;;25.73;12.27;;;;;;;14.10;100.00;101990.94;5064896;28;20459;-70
2023/10/07 03:07:13;;;;;;;;;;;;;;;14.13;100.00;101994.31;5055836;28;20029;-71
2023/10/07 03:09:42;;;;;;;27.48;13.52;;;;;;;14.13;100.00;101978.06;5060666;28;19998;-70
2023/10/07 03:12:12;;;;;;;26.38;13.57;;;;;;;14.15;100.00;101988.78;5059192;28;20036;-70
2023/10/07 03:14:38;;;;;;;27.90;13.73;;;;;;;14.17;100.00;101986.81;5060476;28;20021;-70
2023/10/07 03:17:15;;;;;;;26.33;12.77;;;;;;;14.18;100.00;101988.56;5047654;28;20036;-71
2023/10/07 03:19:56;;;;;;;27.60;13.25;;;;;;;14.21;100.00;101992.91;5046119;28;20120;-70
2023/10/07 03:22:28;;;;;;;25.35;13.27;;;;;;;14.22;100.00;101989.22;5061478;28;20094;-70
2023/10/07 03:25:00;;;;;;;26.70;13.40;;;;;;;14.21;100.00;101982.09;5060879;28;20473;-70
2023/10/07 03:27:26;;;;;;;31.48;15.15;;;;;;;14.22;100.00;101976.56;5064533;28;20024;-70
2023/10/07 03:30:12;;;;;;;31.60;14.10;;;;;;;14.25;100.00;101976.34;5058748;28;20031;-70
2023/10/07 03:32:54;;;;;;;26.70;13.52;;;;;;;14.28;100.00;101970.72;5062605;28;20430;-70
2023/10/07 03:35:35;;;;;;;29.42;14.00;;;;;;;14.28;100.00;101980.69;5051275;28;20108;-70
2023/10/07 03:38:04;;;;;;;32.55;13.57;;;;;;;14.30;100.00;101973.31;5045673;28;20544;-70
2023/10/07 03:40:35;;;;;;;31.63;14.67;;;;;;;14.30;100.00;101966.03;5051395;28;20559;-70
2023/10/07 03:43:01;;;;;;;31.45;14.43;;;;;;;14.31;100.00;101962.38;5047586;28;20028;-70
2023/10/07 03:45:29;;;;;;;28.10;14.68;;;;;;;14.31;100.00;101966.94;5060522;28;20450;-70
2023/10/07 03:47:57;;;;;;;34.45;14.10;;;;;;;14.32;100.00;101961.41;5062319;28;20405;-70
2023/10/07 03:50:34;;;;;;;29.17;14.32;;;;;;;14.34;100.00;101961.31;5055022;28;20021;-70
2023/10/07 03:53:02;;;;;;;30.50;14.73;;;;;;;14.34;100.00;101956.75;5057726;28;20040;-70
2023/10/07 03:55:28;;;;;;;28.42;13.40;;;;;;;14.37;100.00;101950.25;5059520;28;20393;-70
2023/10/07 03:57:55;;;;;;;29.75;15.38;;;;;;;14.39;100.00;101952.84;5058236;28;20028;-70
2023/10/07 04:00:21;;;;;;;27.35;14.57;;;;;;;14.38;100.00;101945.69;5057643;28;20349;-70
2023/10/07 04:02:47;;;;;;;31.05;16.60;;;;;;;14.41;100.00;101945.50;5047300;28;20425;-70
2023/10/07 04:05:13;;;;;;;31.63;14.38;;;;;;;14.41;100.00;101940.09;5055735;28;20481;-71
2023/10/07 04:07:39;;;;;;;31.25;15.35;;;;;;;14.42;100.00;101944.50;5056492;28;20450;-71
2023/10/07 04:12:47;;;;;;;29.70;14.68;;;;;;;14.46;100.00;101936.06;5048348;28;20076;-71
2023/10/07 04:15:16;;;;;;;29.50;15.23;;;;;;;14.46;100.00;101935.22;5045911;28;20120;-70
2023/10/07 04:17:42;;;;;;;30.80;15.63;;;;;;;14.47;100.00;101934.25;5056900;28;20075;-70
2023/10/07 04:20:18;;;;;;;29.45;15.32;;;;;;;14.48;100.00;101930.53;5060507;28;20032;-70
2023/10/07 04:22:57;;;;;;;32.08;16.23;;;;;;;14.46;100.00;101935.22;5049634;28;20045;-71
2023/10/07 04:25:23;;;;;;;27.80;15.32;;;;;;;14.48;100.00;101939.53;5052261;28;20418;-70
2023/10/07 04:27:53;;;;;;;29.23;15.13;;;;;;;14.48;100.00;101926.00;5035486;28;20021;-70
2023/10/07 04:30:20;;;;;;;31.50;15.60;;;;;;;14.49;100.00;101945.81;5060528;28;20352;-70
2023/10/07 04:32:53;;;;;;;28.60;13.65;;;;;;;14.53;100.00;101946.47;5061920;28;20115;-70
2023/10/07 04:35:20;;;;;;;26.73;14.00;;;;;;;14.50;100.00;101953.81;5043944;28;20032;-70
2023/10/07 04:37:52;;;;;;;29.08;14.50;;;;;;;14.51;100.00;101951.97;5065752;28;20043;-70
2023/10/07 04:45:48;;;;;;;28.77;12.95;;;;;;;14.51;100.00;101960.09;5038871;28;20696;-70
2023/10/07 04:48:41;;;;;;;26.75;13.82;;;;;;;14.51;100.00;101958.25;5043830;28;20477;-70
2023/10/07 04:51:12;;;;;;;26.27;12.93;;;;;;;14.53;100.00;101958.13;5054085;28;20028;-70
2023/10/07 04:53:40;;;;;;;26.50;12.10;;;;;;;14.53;100.00;101960.84;5058151;28;20060;-70
2023/10/07 04:56:07;;;;;;;25.83;12.77;;;;;;;14.54;100.00;101973.41;5058847;28;20063;-71
2023/10/07 04:58:32;;;;;;;23.73;11.48;;;;;;;14.54;100.00;101959.00;5048895;28;20032;-70
2023/10/07 05:01:22;;;;;;;26.77;13.18;;;;;;;14.52;100.00;101953.69;5045754;28;20083;-71
2023/10/07 05:03:51;;;;;;;;;;;;;;;14.57;100.00;101953.34;5051768;28;20031;-70
2023/10/07 05:06:16;;;;;;;27.08;13.48;;;;;;;14.55;100.00;101944.50;5057851;28;19912;-70
2023/10/07 05:08:45;;;;;;;27.00;12.35;;;;;;;14.53;100.00;101955.44;5050282;28;20025;-70
2023/10/07 05:11:16;;;;;;;24.73;11.40;;;;;;;14.55;100.00;101950.75;5049304;28;20090;-70
2023/10/07 05:13:44;;;;;;;25.40;11.27;;;;;;;14.55;100.00;101949.91;5059289;28;20509;-70
2023/10/07 05:16:10;;;;;;;27.50;11.35;;;;;;;14.56;100.00;101962.47;5056635;28;20037;-71
2023/10/07 05:18:35;;;;;;;26.23;11.65;;;;;;;14.56;100.00;101965.16;5053222;28;20485;-70
2023/10/07 05:21:00;;;;;;;28.85;11.27;;;;;;;14.57;100.00;101956.06;5056704;28;20035;-70
2023/10/07 05:23:26;;;;;;;22.73;10.68;;;;;;;14.56;100.00;101968.72;5056919;28;20411;-70
2023/10/07 05:25:51;;;;;;;28.50;11.40;;;;;;;14.55;100.00;101969.69;5056863;28;20029;-71
2023/10/07 05:28:20;;;;;;;22.58;10.35;;;;;;;14.55;100.00;101967.00;5056683;28;20123;-71
2023/10/07 05:30:54;;;;;;;23.23;10.50;;;;;;;14.56;100.00;101949.78;5048765;28;20145;-70
2023/10/07 05:33:24;;;;;;;25.77;10.73;;;;;;;14.57;100.00;101947.94;5053409;28;20356;-70
2023/10/07 05:35:49;;;;;;;23.15;10.30;;;;;;;14.57;100.00;101937.13;5056795;28;20035;-72
2023/10/07 05:38:18;;;;;;;23.02;11.05;;;;;;;14.57;100.00;101945.25;5056475;28;20032;-72
2023/10/07 05:40:43;;;;;;;24.35;11.65;;;;;;;14.56;100.00;101947.09;5045923;28;20100;-72
2023/10/07 05:43:09;;;;;;;23.35;9.82;;;;;;;14.57;100.00;101954.25;5049160;28;20044;-72
2023/10/07 05:45:35;;;;;;;24.88;11.00;;;;;;;14.57;100.00;101948.81;5060059;28;20444;-72
2023/10/07 05:48:01;;;;;;;25.08;10.50;;;;;;;14.57;100.00;101939.81;5058113;28;20547;-73
2023/10/07 05:50:27;;;;;;;25.25;9.90;;;;;;;14.57;100.00;101948.81;5056257;28;20035;-72
2023/10/07 05:52:53;;;;;;;22.67;10.68;;;;;;;14.56;100.00;101957.91;5049195;28;20029;-72
2023/10/07 05:55:18;;;;;;;26.50;9.18;;;;;;;14.56;100.00;101955.19;5057453;28;20039;-72
2023/10/07 05:57:43;;;;;;;26.55;9.93;;;;;;;14.58;100.00;101950.53;5057685;28;20036;-72
2023/10/07 06:00:09;;;;;;;26.20;10.55;;;;;;;14.57;100.00;101958.75;5058428;28;20119;-72
2023/10/07 06:02:38;;;;;;;24.73;9.85;;;;;;;14.57;100.00;101951.53;5047059;28;20024;-73
2023/10/07 06:05:06;;;;;;;23.63;9.80;;;;;;;14.58;100.00;101966.75;5051240;28;20484;-73
2023/10/07 06:07:31;;;;;;;25.17;10.80;;;;;;;14.59;100.00;101968.50;5059518;28;20035;-72
2023/10/07 06:09:57;;;;;;;23.75;10.25;;;;;;;14.60;100.00;101961.28;5052901;28;20020;-72
2023/10/07 06:12:23;;;;;;;25.38;10.40;;;;;;;14.59;100.00;101957.69;5053876;28;20048;-72
2023/10/07 06:14:49;;;;;;;24.48;10.45;;;;;;;14.60;100.00;101966.69;5034120;28;20043;-72
2023/10/07 06:17:15;;;;;;;24.63;9.25;;;;;;;14.60;100.00;101967.53;5049451;28;20248;-72
2023/10/07 06:19:43;;;;;;;24.33;9.75;;;;;;;14.62;100.00;101967.47;5055773;28;20111;-72
2023/10/07 06:22:12;;;;;;;26.23;10.23;;;;;;;14.63;100.00;101961.94;5051152;28;20020;-72
2023/10/07 06:24:39;;;;;;;25.33;10.88;;;;;;;14.62;100.00;101954.78;5057706;28;20574;-72
2023/10/07 06:27:08;;;;;;;29.55;10.02;;;;;;;14.63;100.00;101964.63;5046874;28;20047;-72
2023/10/07 06:29:38;;;;;;;27.45;9.68;;;;;;;14.65;100.00;101978.06;5062137;28;20029;-73
2023/10/07 06:32:22;;;;;;;21.95;9.40;;;;;;;14.62;100.00;101987.25;5052714;28;20082;-73
2023/10/07 06:34:51;;;;;;;25.02;10.05;;;;;;;14.64;100.00;101985.31;5051459;28;20032;-73
2023/10/07 06:37:17;;;;;;;25.02;9.52;;;;;;;14.64;100.00;101993.44;5050570;28;20126;-73
2023/10/07 06:39:43;;;;;;;25.58;10.65;;;;;;;14.63;100.00;101991.69;5053233;28;20044;-73
2023/10/07 06:42:10;;;;;;;24.48;9.57;;;;;;;14.64;100.00;101981.72;5063422;28;20431;-73
2023/10/07 06:44:35;;;;;;;24.10;9.52;;;;;;;14.66;100.00;101990.63;5058118;28;20029;-73
2023/10/07 06:47:02;;;;;;;33.97;9.95;;;;;;;14.66;100.00;101986.06;5059214;28;20056;-72
2023/10/07 06:49:28;;;;;;;25.90;10.07;;;;;;;14.67;100.00;101984.22;5061413;28;20071;-72
2023/10/07 06:51:54;;;;;;;25.40;8.93;;;;;;;14.69;100.00;101993.09;5048055;28;20499;-72
2023/10/07 06:54:32;;;;;;;24.23;9.57;;;;;;;14.71;100.00;101998.41;5045546;28;20151;-71
2023/10/07 06:56:58;;;;;;;27.25;8.68;;;;;;;14.71;100.00;102009.22;5049379;28;20025;-72
2023/10/07 06:59:29;;;;;;;23.60;9.65;;;;;;;14.72;100.00;102000.13;5052867;28;20499;-72
2023/10/07 07:01:55;;;;;;;25.02;9.60;;;;;;;14.74;100.00;102004.44;5055388;28;20116;-72
2023/10/07 07:04:22;;;;;;;22.55;8.43;;;;;;;14.75;100.00;102002.63;5056441;28;20043;-72
2023/10/07 07:06:58;;;;;;;23.23;8.90;;;;;;;14.75;100.00;102002.63;5047978;28;20460;-72
2023/10/07 07:12:11;;;;;;;22.23;8.52;;;;;;;14.77;100.00;101989.81;5049867;28;20079;-72
2023/10/07 07:14:37;;;;;;;22.20;8.73;;;;;;;14.78;100.00;102002.38;5055488;28;20401;-72
2023/10/07 07:22:42;;;;;;;21.50;9.10;;;;;;;14.85;100.00;102012.66;5045733;28;20181;-72
2023/10/07 07:25:18;;;;;;;22.95;9.32;;;;;;;14.88;100.00;102022.38;5040165;28;20539;-71
2023/10/07 07:27:48;;;;;;;27.95;8.63;;;;;;;14.88;100.00;102014.28;5044781;28;20026;-72
2023/10/07 07:30:30;;;;;;;22.25;7.97;;;;;;;14.91;100.00;102024.88;5043919;28;20029;-72
2023/10/07 07:32:59;;;;;;;23.25;9.38;;;;;;;14.92;100.00;102023.00;5040359;28;20029;-72
2023/10/07 07:35:39;;;;;;;24.42;9.18;;;;;;;14.92;100.00;102031.13;5046110;28;20024;-72
2023/10/07 07:41:05;;;;;;;22.70;8.75;;;;;;;14.94;100.00;102027.34;5053874;28;19924;-72
2023/10/07 07:43:36;;;;;;;26.03;8.57;;;;;;;14.96;100.00;102022.69;5049862;28;20127;-71
2023/10/07 07:46:18;;;;;;;21.85;8.40;;;;;;;14.96;100.00;102028.09;5053103;28;20039;-72
2023/10/07 07:48:44;;;;;;;21.80;8.88;;;;;;;14.99;100.00;102025.19;5041053;28;20121;-72
2023/10/07 07:51:11;;;;;;;21.77;8.05;;;;;;;15.02;100.00;102019.53;5053256;28;20033;-72
2023/10/07 07:53:39;;;;;;;23.58;8.93;;;;;;;15.03;100.00;102018.53;5057719;28;20391;-71
2023/10/07 07:56:08;;;;;;;24.17;8.38;;;;;;;15.06;100.00;102020.16;5068969;28;20021;-74
2023/10/07 07:58:33;;;;;;;23.27;9.05;;;;;;;15.07;100.00;102012.94;5055418;28;20029;-69
2023/10/07 08:00:59;;;;;;;22.23;8.85;;;;;;;15.08;100.00;102031.78;5060770;28;20038;-69
2023/10/07 08:03:27;;;;;;;24.58;8.80;;;;;;;15.09;100.00;102036.19;5054917;28;20040;-69
2023/10/07 08:05:54;;;;;;;24.27;8.73;;;;;;;15.11;100.00;102039.66;5050041;28;20130;-73
2023/10/07 08:08:24;;;;;;;24.80;8.75;;;;;;;15.16;100.00;102052.84;5059949;28;20029;-74
2023/10/07 08:10:54;;;;;;;21.00;9.02;;;;;;;15.19;100.00;102041.78;5062334;28;20077;-72
2023/10/07 08:13:23;;;;;;;22.00;8.15;;;;;;;15.23;100.00;102037.88;5056488;28;20492;-73
2023/10/07 08:15:50;;;;;;;21.13;7.67;;;;;;;15.28;100.00;102048.38;5042898;28;20078;-72
2023/10/07 08:18:15;;;;;;;25.35;7.75;;;;;;;15.30;100.00;102047.28;5051281;28;20078;-72
2023/10/07 08:20:48;;;;;;;23.67;8.30;;;;;;;15.34;100.00;102056.03;5062649;28;20037;-72
2023/10/07 08:23:28;;;;;;;25.25;8.20;;;;;;;15.37;100.00;102043.16;5054969;28;20392;-72
2023/10/07 08:26:10;;;;;;;23.05;8.32;;;;;;;15.40;100.00;102043.88;5046016;28;20029;-72
2023/10/07 08:28:43;;;;;;;25.15;8.85;;;;;;;15.45;100.00;102044.41;5049057;28;20120;-72
2023/10/07 08:31:16;;;;;;;22.33;8.27;;;;;;;15.48;100.00;102038.78;5059137;28;20044;-72
2023/10/07 08:33:42;;;;;;;22.58;8.48;;;;;;;15.53;100.00;102045.56;5063588;28;20047;-71
2023/10/07 08:36:08;;;;;;;23.30;7.63;;;;;;;15.55;100.00;102032.75;5063279;28;20033;-72
2023/10/07 08:38:44;;;;;;;25.10;9.50;;;;;;;15.57;100.00;102038.06;5058544;28;20028;-71
2023/10/07 08:41:16;;;;;;;18.77;7.85;;;;;;;15.62;100.00;102038.56;5038053;28;20359;-72
2023/10/07 08:43:44;;;;;;;25.98;8.07;;;;;;;15.66;100.00;102039.22;5050614;28;20017;-71
2023/10/07 08:46:15;;;;;;;25.98;7.85;;;;;;;15.68;100.00;102043.53;5061541;28;20027;-72
2023/10/07 08:48:49;;;;;;;22.73;7.80;;;;;;;15.73;100.00;102048.59;5055914;28;20512;-72
2023/10/07 08:51:21;;;;;;;22.05;7.03;;;;;;;15.76;100.00;102037.53;5044575;28;20037;-72
2023/10/07 08:53:47;;;;;;;26.65;7.68;;;;;;;15.80;100.00;102035.47;5037091;28;20029;-71
2023/10/07 08:56:17;;;;;;;21.75;8.43;;;;;;;15.83;100.00;102029.84;5060189;28;20558;-72
2023/10/07 08:58:44;;;;;;;21.45;7.88;;;;;;;15.84;100.00;102029.72;5063231;28;20052;-72
2023/10/07 09:01:17;;;;;;;23.08;7.15;;;;;;;15.89;100.00;102026.66;5055459;28;20029;-71
2023/10/07 09:03:47;;;;;;;17.02;6.47;;;;;;;15.91;100.00;102027.38;5060133;28;20033;-72
2023/10/07 09:06:12;;;;;;;20.20;6.80;;;;;;;15.95;100.00;102031.59;5056554;28;20021;-72
2023/10/07 09:08:38;;;;;;;21.23;7.38;;;;;;;15.97;100.00;102028.75;5047534;28;20412;-73
2023/10/07 09:11:07;;;;;;;22.60;7.55;;;;;;;16.02;100.00;102032.84;5048968;28;20068;-73
2023/10/07 09:13:33;;;;;;;;;;;;;;;16.06;100.00;102034.34;5041591;28;20035;-72
2023/10/07 09:15:59;;;;;;;21.67;6.97;;;;;;;16.08;100.00;102031.50;5061311;28;20015;-73
2023/10/07 09:18:36;;;;;;;21.65;7.18;;;;;;;16.11;100.00;102027.69;5057117;28;20033;-73
2023/10/07 09:21:09;;;;;;;19.70;7.03;;;;;;;16.17;100.00;102027.22;5040651;28;20025;-77
2023/10/07 09:23:41;;;;;;;18.85;6.47;;;;;;;16.20;100.00;102018.81;5048217;28;20238;-77
2023/10/07 09:26:16;;;;;;;18.83;7.15;;;;;;;16.22;100.00;102015.03;5046732;28;20466;-76
2023/10/07 09:28:46;;;;;;;36.13;8.02;;;;;;;16.26;100.00;102018.34;5060978;28;20067;-76
2023/10/07 09:31:15;;;;;;;20.63;6.50;;;;;;;16.31;100.00;102028.81;5042613;28;20055;-76
2023/10/07 09:33:41;;;;;;;21.38;7.18;;;;;;;16.32;100.00;102025.13;5039941;28;20056;-78
2023/10/07 09:41:44;;;;;;;20.05;6.07;;;;;;;16.43;100.00;102028.72;5034923;28;20131;-77
2023/10/07 09:44:28;;;;;;;26.75;6.43;;;;;;;16.49;100.00;102026.50;5041524;28;20089;-76
2023/10/07 09:46:54;;;;;;;17.90;6.57;;;;;;;16.55;100.00;102026.03;5050382;28;20053;-76
2023/10/07 09:49:22;;;;;;;20.60;6.10;;;;;;;16.60;100.00;102029.22;5044261;28;20052;-76
2023/10/07 09:51:56;;;;;;;17.77;5.25;;;;;;;16.63;100.00;102025.41;5054441;28;20043;-75
2023/10/07 09:54:54;;;;;;;20.08;5.50;;;;;;;16.68;100.00;102025.91;5056745;28;20082;-73
2023/10/07 09:57:30;;;;;;;15.15;5.05;;;;;;;16.72;100.00;102032.78;5050290;28;20028;-75
2023/10/07 10:00:44;;;;;;;17.60;5.60;;;;;;;16.74;100.00;102017.25;5050222;28;20136;-74
2023/10/07 10:03:28;;;;;;;19.00;6.15;;;;;;;16.79;100.00;102017.72;5054616;28;20034;-76
2023/10/07 10:05:56;;;;;;;18.30;5.78;;;;;;;16.84;100.00;102020.94;5044310;28;20022;-77
2023/10/07 10:08:47;;;;;;;18.98;6.05;;;;;;;16.89;100.00;102017.88;5044611;28;20081;-74
2023/10/07 10:11:30;;;;;;;19.60;6.00;;;;;;;16.93;100.00;102031.09;5045364;28;20021;-75
2023/10/07 10:14:14;;;;;;;19.63;6.18;;;;;;;16.96;100.00;102034.56;5051301;28;20047;-75
2023/10/07 10:16:45;;;;;;;15.95;5.30;;;;;;;17.02;100.00;102028.63;5060740;28;20094;-76
2023/10/07 10:19:44;;;;;;;19.38;5.63;;;;;;;17.06;100.00;102033.66;5038933;28;20021;-76
2023/10/07 10:22:11;;;;;;;19.42;5.72;;;;;;;17.14;100.00;102038.47;5049166;28;20020;-75
2023/10/07 10:24:43;;;;;;;15.35;5.75;;;;;;;17.17;100.00;102037.34;5063338;28;20153;-75
2023/10/07 10:27:11;;;;;;;18.70;6.25;;;;;;;17.23;100.00;102042.25;5060332;28;20075;-75
2023/10/07 10:30:04;;;;;;;18.02;5.80;;;;;;;17.29;100.00;102044.47;5052564;28;20035;-75
2023/10/07 10:32:36;;;;;;;19.60;5.57;;;;;;;17.32;100.00;102057.81;5048532;28;20095;-76
2023/10/07 10:35:11;;;;;;;18.08;6.00;;;;;;;17.36;100.00;102047.56;5057185;28;20425;-74
2023/10/07 10:37:37;;;;;;;19.67;6.22;;;;;;;17.36;100.00;102044.84;5056299;28;20032;-70
2023/10/07 10:40:14;;;;;;;19.33;5.40;;;;;;;17.43;100.00;102049.63;5058407;28;20031;-71
2023/10/07 10:42:43;;;;;;;19.27;5.57;;;;;;;17.43;100.00;102049.63;5054135;28;20410;-70
2023/10/07 10:45:19;;;;;;;20.08;5.45;;;;;;;17.44;100.00;102050.50;5063871;28;20113;-71
2023/10/07 10:47:54;;;;;;;19.98;5.78;;;;;;;17.46;100.00;102046.66;5056447;28;20382;-71
2023/10/07 10:50:23;;;;;;;21.02;5.90;;;;;;;17.49;99.75;102041.97;5042224;28;20107;-71
2023/10/07 10:52:54;;;;;;;19.48;5.57;;;;;;;17.54;100.00;102034.28;5052471;28;20123;-71
2023/10/07 10:55:19;;;;;;;16.92;5.85;;;;;;;17.58;98.83;102041.19;5061812;28;20033;-71
2023/10/07 10:57:45;;;;;;;18.20;5.30;;;;;;;17.64;100.00;102041.53;5053813;28;20047;-72
2023/10/07 11:00:22;;;;;;;17.88;5.50;;;;;;;17.69;100.00;102029.38;5044399;28;20112;-71
2023/10/07 11:02:52;;;;;;;19.98;6.05;;;;;;;17.73;98.36;102029.03;5043776;28;20032;-71
2023/10/07 11:05:20;;;;;;;16.92;5.05;;;;;;;17.78;98.57;102026.75;5041468;28;20021;-71
2023/10/07 11:07:48;;;;;;;19.02;5.93;;;;;;;17.79;97.55;102036.66;5040885;28;20025;-71
2023/10/07 11:10:22;;;;;;;19.65;5.35;;;;;;;17.81;97.90;102029.22;5040112;28;20412;-73
2023/10/07 11:12:54;;;;;;;20.13;6.20;;;;;;;17.85;98.12;102032.53;5042979;28;20460;-71
2023/10/07 11:15:26;;;;;;;17.88;5.80;;;;;;;17.91;97.92;102029.31;5041728;28;20113;-71
2023/10/07 11:17:56;;;;;;;18.90;6.18;;;;;;;18.01;97.62;102032.13;5065046;28;20024;-72
2023/10/07 11:20:32;;;;;;;14.90;5.57;;;;;;;18.03;99.16;102030.13;5063590;28;20116;-71
2023/10/07 11:22:58;;;;;;;19.65;5.80;;;;;;;18.08;98.17;102036.03;5050822;28;20029;-71
2023/10/07 11:25:25;;;;;;;18.75;5.70;;;;;;;18.10;97.79;102025.88;5053819;28;20502;-71
2023/10/07 11:27:51;;;;;;;18.92;6.05;;;;;;;18.15;96.71;102029.03;5050350;28;20503;-71
2023/10/07 11:30:17;;;;;;;20.10;6.00;;;;;;;18.17;97.45;102020.78;5056014;28;20100;-71
2023/10/07 11:32:43;;;;;;;21.25;6.22;;;;;;;18.21;96.98;102018.63;5053582;28;20032;-71
2023/10/07 11:35:19;;;;;;;18.25;5.50;;;;;;;18.24;97.55;102015.66;5062788;28;20021;-71
2023/10/07 11:37:57;;;;;;;20.60;5.57;;;;;;;18.25;97.67;102025.53;5064063;28;20040;-72
2023/10/07 11:40:32;;;;;;;17.98;5.80;;;;;;;18.25;97.29;102014.66;5056139;28;20025;-71
2023/10/07 11:43:04;;;;;;;20.27;5.93;;;;;;;18.29;96.46;102014.25;5056579;28;20087;-72
2023/10/07 11:45:31;;;;;;;20.35;5.85;;;;;;;18.35;98.14;102010.13;5058343;28;20024;-71
2023/10/07 11:47:57;;;;;;;22.55;6.45;;;;;;;18.35;95.25;102012.84;5053601;28;20056;-70
2023/10/07 11:50:29;;;;;;;18.33;5.25;;;;;;;18.37;95.21;102010.84;5067631;28;20017;-71
2023/10/07 11:52:54;;;;;;;20.13;6.72;;;;;;;18.39;95.35;102017.03;5064618;28;20032;-71
2023/10/07 11:55:20;;;;;;;15.27;4.95;;;;;;;18.44;97.25;102017.47;5058944;28;20028;-72
2023/10/07 11:57:45;;;;;;;17.92;5.82;;;;;;;18.44;95.31;102017.47;5036299;28;20024;-72
2023/10/07 12:00:27;;;;;;;19.70;6.50;;;;;;;18.51;95.42;102018.66;5042412;28;20361;-71
2023/10/07 12:02:52;;;;;;;18.10;5.63;;;;;;;18.51;97.20;102018.66;5055352;28;20028;-70